createdAt,value
2022-09-04T00:01:15.100Z,99.90
2022-09-04T00:03:51.540Z,99.90
2022-09-04T00:06:24.929Z,99.90
2022-09-04T00:09:04.480Z,99.90
2022-09-04T00:11:47.637Z,99.90
2022-09-04T00:14:21.469Z,99.90
2022-09-04T00:17:00.926Z,99.90
2022-09-04T00:19:35.476Z,99.90
2022-09-04T00:22:24.983Z,99.90
2022-09-04T00:25:03.748Z,99.90
2022-09-04T00:27:43.465Z,99.90
2022-09-04T00:30:19.810Z,99.90
2022-09-04T00:32:55.823Z,99.90
2022-09-04T00:35:30.750Z,99.90
2022-09-04T00:38:04.984Z,99.90
2022-09-04T00:40:35.789Z,99.90
2022-09-04T00:43:25.858Z,99.90
2022-09-04T00:46:14.078Z,99.90
2022-09-04T00:49:06.720Z,99.90
2022-09-04T00:51:43.756Z,99.90
2022-09-04T00:54:26.546Z,99.90
2022-09-04T00:57:45.160Z,99.90
2022-09-04T01:00:16.420Z,99.90
2022-09-04T01:03:04.412Z,99.90
2022-09-04T01:05:45.948Z,99.90
2022-09-04T01:08:26.151Z,99.90
2022-09-04T01:11:08.285Z,99.90
2022-09-04T01:13:42.320Z,99.90
2022-09-04T01:16:16.814Z,99.90
2022-09-04T01:18:56.373Z,99.90
2022-09-04T01:21:51.319Z,99.90
2022-09-04T01:24:33.965Z,99.90
2022-09-04T01:27:09.610Z,99.90
2022-09-04T01:29:50.327Z,99.90
2022-09-04T01:32:33.872Z,99.90
2022-09-04T01:35:08.968Z,99.90
2022-09-04T01:38:03.646Z,99.90
2022-09-04T01:40:40.216Z,99.90
2022-09-04T01:43:12.872Z,99.90
2022-09-04T01:46:01.005Z,99.90
2022-09-04T01:48:39.400Z,99.90
2022-09-04T01:51:19.897Z,99.90
2022-09-04T01:53:57.725Z,99.90
2022-09-04T01:56:34.438Z,99.90
2022-09-04T01:59:09.841Z,99.90
2022-09-04T02:01:45.785Z,99.90
2022-09-04T02:04:21.781Z,99.90
2022-09-04T02:07:01.949Z,99.90
2022-09-04T02:09:37.289Z,99.90
2022-09-04T02:12:19.131Z,99.90
2022-09-04T02:14:59.504Z,99.90
2022-09-04T02:17:37.253Z,99.90
2022-09-04T02:20:17.616Z,99.90
2022-09-04T02:22:53.180Z,99.90
2022-09-04T02:25:28.938Z,99.90
2022-09-04T02:28:10.571Z,99.90
2022-09-04T02:30:54.351Z,99.90
2022-09-04T02:33:32.181Z,99.90
2022-09-04T02:36:07.051Z,99.90
2022-09-04T02:38:45.688Z,99.90
2022-09-04T02:41:24.098Z,99.90
2022-09-04T02:44:03.329Z,99.90
2022-09-04T02:46:43.283Z,99.90
2022-09-04T02:49:20.609Z,99.90
2022-09-04T02:52:02.020Z,99.90
2022-09-04T02:54:49.669Z,99.90
2022-09-04T02:57:30.202Z,99.90
2022-09-04T03:00:07.408Z,99.90
2022-09-04T03:02:42.703Z,99.90
2022-09-04T03:05:20.288Z,99.90
2022-09-04T03:07:59.246Z,99.90
2022-09-04T03:10:32.885Z,99.90
2022-09-04T03:13:08.227Z,99.90
2022-09-04T03:15:41.804Z,99.90
2022-09-04T03:18:20.904Z,99.90
2022-09-04T03:20:55.589Z,99.90
2022-09-04T03:23:33.945Z,99.90
2022-09-04T03:26:20.641Z,99.90
2022-09-04T03:29:10.649Z,99.90
2022-09-04T03:31:48.542Z,99.90
2022-09-04T03:34:29.067Z,99.90
2022-09-04T03:37:14.364Z,99.90
2022-09-04T03:39:55.239Z,99.90
2022-09-04T03:42:35.234Z,99.90
2022-09-04T03:45:18.642Z,99.90
2022-09-04T03:47:56.376Z,99.90
2022-09-04T03:50:36.478Z,99.90
2022-09-04T03:53:16.267Z,99.90
2022-09-04T03:56:21.713Z,99.90
2022-09-04T03:59:00.305Z,99.90
2022-09-04T04:01:38.111Z,99.90
2022-09-04T04:04:44.093Z,99.90
2022-09-04T04:07:35.501Z,99.90
2022-09-04T04:10:16.669Z,99.90
2022-09-04T04:13:12.359Z,99.90
2022-09-04T04:15:55.857Z,99.90
2022-09-04T04:18:42.967Z,99.90
2022-09-04T04:21:18.734Z,99.90
2022-09-04T04:24:02.139Z,99.90
2022-09-04T04:26:40.794Z,99.90
2022-09-04T04:29:26.806Z,99.90
2022-09-04T04:32:14.591Z,99.90
2022-09-04T04:34:58.998Z,99.90
2022-09-04T04:37:37.337Z,99.90
2022-09-04T04:40:16.461Z,99.90
2022-09-04T04:42:53.375Z,99.90
2022-09-04T04:45:47.113Z,99.90
2022-09-04T04:48:51.730Z,99.90
2022-09-04T04:51:40.525Z,99.90
2022-09-04T04:54:27.417Z,99.90
2022-09-04T04:57:02.125Z,99.90
2022-09-04T04:59:40.401Z,99.90
2022-09-04T05:02:19.160Z,99.90
2022-09-04T05:04:58.078Z,99.90
2022-09-04T05:07:34.665Z,99.90
2022-09-04T05:10:11.899Z,99.90
2022-09-04T05:12:57.113Z,99.90
2022-09-04T05:15:34.420Z,99.90
2022-09-04T05:18:12.134Z,99.90
2022-09-04T05:20:45.325Z,99.90
2022-09-04T05:23:28.530Z,99.90
2022-09-04T05:26:09.113Z,99.90
2022-09-04T05:28:50.005Z,99.90
2022-09-04T05:31:27.930Z,99.90
2022-09-04T05:34:03.441Z,99.90
2022-09-04T05:36:43.964Z,99.90
2022-09-04T05:39:19.644Z,99.90
2022-09-04T05:42:06.558Z,99.90
2022-09-04T05:44:55.214Z,99.90
2022-09-04T05:47:34.865Z,99.90
2022-09-04T05:50:27.835Z,99.90
2022-09-04T05:53:28.990Z,99.90
2022-09-04T05:56:13.961Z,99.90
2022-09-04T05:58:58.884Z,99.90
2022-09-04T06:01:52.500Z,99.90
2022-09-04T06:04:41.905Z,99.90
2022-09-04T06:07:18.843Z,99.90
2022-09-04T06:09:59.682Z,99.90
2022-09-04T06:12:42.802Z,99.90
2022-09-04T06:15:28.441Z,99.90
2022-09-04T06:18:12.768Z,99.90
2022-09-04T06:20:55.011Z,99.90
2022-09-04T06:23:56.750Z,99.90
2022-09-04T06:26:41.398Z,99.90
2022-09-04T06:29:49.638Z,99.90
2022-09-04T06:32:54.150Z,99.90
2022-09-04T06:35:34.769Z,99.90
2022-09-04T06:38:20.268Z,99.90
2022-09-04T06:41:03.987Z,99.90
2022-09-04T06:43:42.712Z,99.90
2022-09-04T06:46:22.722Z,99.90
2022-09-04T06:49:02.680Z,99.90
2022-09-04T06:51:45.581Z,99.90
2022-09-04T06:54:21.066Z,99.90
2022-09-04T06:57:08.903Z,99.90
2022-09-04T07:00:03.744Z,99.90
2022-09-04T07:02:50.193Z,99.90
2022-09-04T07:05:25.898Z,99.90
2022-09-04T07:08:04.979Z,99.90
2022-09-04T07:10:36.059Z,99.90
2022-09-04T07:13:24.908Z,99.90
2022-09-04T07:16:32.303Z,99.90
2022-09-04T07:19:38.547Z,99.90
2022-09-04T07:22:29.849Z,99.90
2022-09-04T07:25:12.350Z,99.90
2022-09-04T07:27:55.855Z,99.90
2022-09-04T07:30:26.106Z,99.90
2022-09-04T07:32:58.648Z,99.90
2022-09-04T07:35:36.326Z,99.90
2022-09-04T07:38:13.220Z,99.90
2022-09-04T07:40:45.929Z,99.90
2022-09-04T07:43:21.432Z,99.90
2022-09-04T07:46:00.432Z,99.90
2022-09-04T07:48:33.808Z,99.90
2022-09-04T07:51:10.496Z,99.90
2022-09-04T07:53:54.898Z,99.90
2022-09-04T07:56:35.991Z,99.90
2022-09-04T07:59:24.254Z,99.90
2022-09-04T08:02:19.034Z,99.90
2022-09-04T08:05:09.050Z,99.90
2022-09-04T08:08:16.645Z,99.90
2022-09-04T08:11:00.782Z,99.90
2022-09-04T08:13:43.128Z,99.90
2022-09-04T08:16:19.248Z,99.90
2022-09-04T08:19:12.038Z,99.90
2022-09-04T08:21:47.792Z,99.90
2022-09-04T08:24:41.271Z,99.90
2022-09-04T08:27:23.198Z,99.90
2022-09-04T08:30:08.597Z,99.90
2022-09-04T08:33:11.948Z,99.90
2022-09-04T08:35:51.019Z,99.90
2022-09-04T08:38:39.698Z,99.90
2022-09-04T08:41:55.049Z,99.90
2022-09-04T08:44:50.018Z,99.90
2022-09-04T08:47:54.776Z,99.90
2022-09-04T08:50:40.672Z,99.90
2022-09-04T08:53:42.060Z,99.90
2022-09-04T08:56:22.141Z,99.90
2022-09-04T08:59:28.321Z,99.90
2022-09-04T09:02:39.350Z,99.90
2022-09-04T09:05:55.726Z,99.90
2022-09-04T09:09:21.461Z,99.90
2022-09-04T09:12:21.610Z,99.90
2022-09-04T09:15:28.081Z,99.90
2022-09-04T09:18:04.227Z,99.90
2022-09-04T09:20:45.924Z,99.90
2022-09-04T09:23:39.006Z,99.90
2022-09-04T09:26:26.550Z,99.90
2022-09-04T09:29:25.143Z,99.90
2022-09-04T09:32:35.570Z,99.90
2022-09-04T09:35:34.514Z,99.90
2022-09-04T09:38:39.021Z,99.90
2022-09-04T09:41:28.501Z,99.90
2022-09-04T09:44:31.502Z,99.90
2022-09-04T09:47:32.342Z,99.90
2022-09-04T09:50:45.438Z,99.90
2022-09-04T09:54:01.257Z,99.90
2022-09-04T09:57:13.111Z,99.90
2022-09-04T10:00:09.502Z,99.90
2022-09-04T10:03:07.815Z,99.90
2022-09-04T10:06:09.702Z,99.90
2022-09-04T10:09:09.150Z,99.90
2022-09-04T10:12:19.968Z,99.90
2022-09-04T10:15:07.323Z,99.90
2022-09-04T10:18:15.534Z,99.90
2022-09-04T10:21:20.819Z,99.90
2022-09-04T10:24:22.696Z,99.90
2022-09-04T10:27:26.821Z,99.90
2022-09-04T10:30:06.045Z,99.90
2022-09-04T10:33:14.455Z,99.90
2022-09-04T10:36:04.327Z,99.90
2022-09-04T10:39:08.192Z,99.90
2022-09-04T10:42:06.254Z,99.90
2022-09-04T10:45:02.549Z,98.90
2022-09-04T10:47:58.758Z,97.90
2022-09-04T10:50:37.357Z,96.80
2022-09-04T10:53:35.482Z,96.10
2022-09-04T10:56:16.244Z,94.20
2022-09-04T10:59:16.246Z,93.80
2022-09-04T11:02:14.037Z,92.20
2022-09-04T11:05:08.289Z,93.20
2022-09-04T11:08:04.009Z,93.50
2022-09-04T11:10:53.101Z,91.90
2022-09-04T11:13:57.745Z,91.80
2022-09-04T11:16:50.727Z,91.10
2022-09-04T11:19:57.741Z,90.00
2022-09-04T11:22:58.527Z,91.00
2022-09-04T11:26:15.273Z,92.10
2022-09-04T11:29:04.355Z,92.00
2022-09-04T11:31:51.146Z,91.80
2022-09-04T11:35:07.136Z,91.20
2022-09-04T11:38:14.650Z,90.40
2022-09-04T11:41:31.333Z,90.00
2022-09-04T11:44:35.885Z,88.80
2022-09-04T11:47:48.636Z,88.40
2022-09-04T11:50:31.517Z,86.40
2022-09-04T11:53:32.603Z,88.60
2022-09-04T11:56:21.605Z,90.20
2022-09-04T11:59:17.064Z,89.60
2022-09-04T12:02:22.199Z,88.90
2022-09-04T12:05:09.607Z,89.50
2022-09-04T12:08:06.102Z,90.10
2022-09-04T12:11:04.368Z,90.50
2022-09-04T12:13:59.373Z,87.60
2022-09-04T12:16:50.962Z,90.20
2022-09-04T12:19:45.701Z,89.00
2022-09-04T12:22:58.003Z,87.40
2022-09-04T12:26:11.532Z,86.50
2022-09-04T12:29:12.705Z,89.30
2022-09-04T12:32:07.099Z,86.40
2022-09-04T12:34:54.454Z,85.60
2022-09-04T12:38:07.415Z,85.50
2022-09-04T12:40:45.335Z,85.00
2022-09-04T12:43:22.220Z,84.50
2022-09-04T12:46:05.861Z,83.00
2022-09-04T12:48:42.664Z,85.90
2022-09-04T12:51:14.431Z,83.10
2022-09-04T12:54:23.676Z,80.00
2022-09-04T12:57:08.171Z,77.20
2022-09-04T12:59:46.513Z,75.70
2022-09-04T13:02:28.784Z,76.90
2022-09-04T13:05:06.285Z,76.30
2022-09-04T13:07:52.237Z,78.00
2022-09-04T13:10:32.925Z,79.30
2022-09-04T13:13:15.722Z,84.50
2022-09-04T13:15:58.185Z,84.20
2022-09-04T13:18:46.690Z,75.00
2022-09-04T13:21:26.860Z,74.70
2022-09-04T13:24:12.807Z,75.20
2022-09-04T13:26:55.640Z,72.90
2022-09-04T13:29:40.251Z,73.80
2022-09-04T13:32:28.938Z,73.50
2022-09-04T13:35:15.944Z,74.00
2022-09-04T13:38:07.887Z,76.50
2022-09-04T13:41:00.155Z,74.30
2022-09-04T13:44:01.585Z,76.40
2022-09-04T13:46:34.545Z,73.60
2022-09-04T13:49:08.651Z,73.50
2022-09-04T13:51:44.774Z,73.70
2022-09-04T13:54:17.964Z,75.60
2022-09-04T13:56:53.889Z,75.30
2022-09-04T13:59:24.531Z,73.70
2022-09-04T14:01:58.330Z,74.50
2022-09-04T14:04:33.507Z,73.10
2022-09-04T14:07:11.717Z,72.80
2022-09-04T14:09:45.243Z,72.10
2022-09-04T14:12:38.625Z,73.60
2022-09-04T14:15:28.663Z,75.30
2022-09-04T14:18:16.500Z,73.30
2022-09-04T14:20:58.063Z,71.60
2022-09-04T14:23:42.345Z,73.10
2022-09-04T14:26:21.516Z,74.50
2022-09-04T14:28:57.330Z,73.80
2022-09-04T14:31:35.232Z,75.50
2022-09-04T14:34:16.060Z,73.70
2022-09-04T14:36:55.198Z,73.50
2022-09-04T14:39:29.116Z,74.40
2022-09-04T14:42:29.349Z,73.90
2022-09-04T14:45:23.369Z,73.70
2022-09-04T14:47:55.852Z,74.70
2022-09-04T14:50:30.380Z,75.00
2022-09-04T14:53:03.624Z,75.60
2022-09-04T14:55:35.470Z,76.60
2022-09-04T14:58:10.471Z,76.80
2022-09-04T15:01:00.294Z,77.50
2022-09-04T15:03:35.153Z,79.00
2022-09-04T15:06:16.198Z,79.30
2022-09-04T15:08:46.430Z,78.50
2022-09-04T15:11:31.599Z,78.90
2022-09-04T15:14:06.066Z,79.80
2022-09-04T15:16:50.625Z,80.90
2022-09-04T15:19:33.210Z,81.30
2022-09-04T15:22:07.622Z,80.80
2022-09-04T15:24:39.573Z,80.70
2022-09-04T15:27:19.898Z,81.80
2022-09-04T15:30:02.258Z,81.50
2022-09-04T15:32:36.670Z,81.90
2022-09-04T15:35:15.553Z,82.00
2022-09-04T15:37:48.358Z,81.60
2022-09-04T15:40:29.104Z,83.10
2022-09-04T15:43:12.330Z,82.70
2022-09-04T15:45:47.969Z,82.90
2022-09-04T15:48:24.158Z,82.90
2022-09-04T15:51:03.822Z,82.70
2022-09-04T15:53:35.878Z,83.10
2022-09-04T15:56:09.588Z,83.00
2022-09-04T15:58:55.382Z,81.80
2022-09-04T16:01:28.058Z,81.80
2022-09-04T16:04:07.258Z,83.40
2022-09-04T16:06:44.966Z,84.00
2022-09-04T16:09:23.989Z,85.40
2022-09-04T16:12:01.568Z,84.60
2022-09-04T16:14:38.426Z,84.00
2022-09-04T16:17:20.155Z,83.50
2022-09-04T16:19:57.727Z,83.20
2022-09-04T16:22:36.372Z,83.60
2022-09-04T16:25:10.195Z,84.30
2022-09-04T16:27:48.146Z,84.50
2022-09-04T16:30:33.010Z,82.90
2022-09-04T16:33:03.029Z,82.70
2022-09-04T16:35:36.267Z,83.80
2022-09-04T16:38:10.336Z,83.40
2022-09-04T16:40:43.986Z,83.30
2022-09-04T16:43:21.892Z,84.10
2022-09-04T16:46:06.397Z,85.10
2022-09-04T16:48:43.909Z,86.00
2022-09-04T16:51:39.449Z,86.20
2022-09-04T16:54:18.047Z,86.30
2022-09-04T16:56:50.800Z,86.40
2022-09-04T16:59:27.782Z,86.40
2022-09-04T17:02:02.475Z,85.80
2022-09-04T17:04:44.787Z,86.20
2022-09-04T17:07:19.114Z,86.50
2022-09-04T17:09:56.890Z,86.20
2022-09-04T17:12:38.685Z,86.50
2022-09-04T17:15:17.473Z,86.70
2022-09-04T17:17:47.795Z,86.20
2022-09-04T17:20:40.160Z,87.00
2022-09-04T17:29:03.037Z,88.30
2022-09-04T17:29:11.307Z,89.40
2022-09-04T17:29:34.507Z,90.20
2022-09-04T17:32:11.830Z,90.50
2022-09-04T17:40:48.267Z,91.20
2022-09-04T17:40:48.978Z,91.90
2022-09-04T17:41:37.963Z,92.10
2022-09-04T17:44:19.672Z,92.30
2022-09-04T17:47:03.813Z,92.60
2022-09-04T17:49:35.142Z,93.00
2022-09-04T17:52:09.087Z,93.20
2022-09-04T17:54:42.125Z,93.70
2022-09-04T17:57:26.045Z,93.50
2022-09-04T18:00:01.451Z,93.70
2022-09-04T18:02:39.758Z,94.10
2022-09-04T18:05:19.398Z,94.10
2022-09-04T18:08:09.945Z,94.20
2022-09-04T18:10:53.484Z,94.20
2022-09-04T18:13:38.099Z,94.20
2022-09-04T18:16:40.603Z,94.40
2022-09-04T18:19:20.267Z,94.70
2022-09-04T18:22:15.728Z,94.70
2022-09-04T18:24:50.751Z,95.00
2022-09-04T18:27:23.081Z,95.10
2022-09-04T18:34:29.616Z,95.20
2022-09-04T18:37:12.024Z,95.40
2022-09-04T18:37:25.658Z,95.60
2022-09-04T18:39:09.158Z,95.80
2022-09-04T18:49:15.989Z,96.00
2022-09-04T18:50:31.930Z,96.20
2022-09-04T18:50:33.640Z,96.40
2022-09-04T18:53:45.190Z,96.50
2022-09-04T18:56:20.892Z,96.80
2022-09-04T18:59:05.375Z,97.00
2022-09-04T19:01:43.943Z,97.10
2022-09-04T19:04:44.630Z,97.20
2022-09-04T19:07:23.134Z,97.30
2022-09-04T19:10:04.408Z,97.50
2022-09-04T19:12:47.077Z,97.60
2022-09-04T19:15:45.559Z,97.70
2022-09-04T19:18:27.471Z,98.00
2022-09-04T19:21:14.672Z,98.20
2022-09-04T19:23:50.278Z,98.30
2022-09-04T19:26:27.753Z,98.60
2022-09-04T19:29:00.692Z,98.90
2022-09-04T19:31:37.368Z,99.10
2022-09-04T19:34:15.197Z,99.00
2022-09-04T19:36:50.393Z,99.00
2022-09-04T19:45:55.852Z,99.30
2022-09-04T19:46:06.471Z,99.80
2022-09-04T19:46:17.658Z,99.90
2022-09-04T19:48:32.087Z,99.90
2022-09-04T19:53:34.524Z,99.90
2022-09-04T19:54:10.145Z,99.90
2022-09-04T19:57:33.013Z,99.90
2022-09-04T19:59:43.400Z,99.90
2022-09-04T20:02:23.288Z,99.90
2022-09-04T20:04:58.964Z,99.90
2022-09-04T20:07:41.112Z,99.90
2022-09-04T20:10:20.005Z,99.90
2022-09-04T20:12:53.837Z,99.90
2022-09-04T20:15:31.877Z,99.90
2022-09-04T20:18:10.008Z,99.90
2022-09-04T20:20:49.796Z,99.90
2022-09-04T20:23:43.845Z,99.90
2022-09-04T20:26:20.279Z,99.90
2022-09-04T20:28:59.559Z,99.90
2022-09-04T20:31:40.078Z,99.90
2022-09-04T20:34:27.910Z,99.90
2022-09-04T20:37:15.888Z,99.90
2022-09-04T20:39:53.132Z,99.90
2022-09-04T20:42:28.457Z,99.90
2022-09-04T20:46:26.391Z,99.90
2022-09-04T20:52:42.762Z,99.90
2022-09-04T20:52:48.680Z,99.90
2022-09-04T20:53:55.468Z,99.90
2022-09-04T20:58:02.736Z,99.90
2022-09-04T21:03:08.299Z,99.90
2022-09-04T21:03:13.968Z,99.90
2022-09-04T21:05:41.461Z,99.90
2022-09-04T21:08:19.668Z,99.90
2022-09-04T21:10:56.608Z,99.90
2022-09-04T21:13:31.088Z,99.90
2022-09-04T21:16:12.832Z,99.90
2022-09-04T21:19:27.969Z,99.90
2022-09-04T21:22:15.412Z,99.90
2022-09-04T21:25:09.767Z,99.90
2022-09-04T21:28:02.009Z,99.90
2022-09-04T21:30:50.401Z,99.90
2022-09-04T21:33:36.765Z,99.90
2022-09-04T21:36:26.896Z,99.90
2022-09-04T21:39:26.644Z,99.90
2022-09-04T21:42:11.432Z,99.90
2022-09-04T21:45:18.174Z,99.90
2022-09-04T21:48:23.254Z,99.90
2022-09-04T21:51:21.299Z,99.90
2022-09-04T21:54:37.552Z,99.90
2022-09-04T22:02:28.499Z,99.90
2022-09-04T22:02:37.303Z,99.90
2022-09-04T22:03:29.648Z,99.90
2022-09-04T22:06:10.428Z,99.90
2022-09-04T22:13:33.829Z,99.90
2022-09-04T22:13:38.743Z,99.90
2022-09-04T22:14:51.689Z,99.90
2022-09-04T22:17:42.520Z,99.90
2022-09-04T22:20:25.068Z,99.90
2022-09-04T22:23:31.358Z,99.90
2022-09-04T22:26:23.783Z,99.90
2022-09-04T22:29:12.531Z,99.90
2022-09-04T22:32:21.961Z,99.90
2022-09-04T22:35:36.061Z,99.90
2022-09-04T22:38:28.698Z,99.90
2022-09-04T22:41:21.492Z,99.90
2022-09-04T22:44:00.714Z,99.90
2022-09-04T22:46:56.466Z,99.90
2022-09-04T22:49:43.308Z,99.90
2022-09-04T22:52:29.715Z,99.90
2022-09-04T22:55:36.284Z,99.90
2022-09-04T22:58:19.153Z,99.90
2022-09-04T23:01:04.628Z,99.90
2022-09-04T23:03:45.544Z,99.90
2022-09-04T23:10:13.845Z,99.90
2022-09-04T23:13:47.051Z,99.90
2022-09-04T23:14:00.809Z,99.90
2022-09-04T23:15:56.058Z,99.90
2022-09-04T23:22:29.436Z,99.90
2022-09-04T23:26:34.641Z,99.90
2022-09-04T23:26:54.235Z,99.90
2022-09-04T23:28:28.686Z,99.90
2022-09-04T23:31:29.243Z,99.90
2022-09-04T23:34:27.403Z,99.90
2022-09-04T23:37:15.242Z,99.90
2022-09-04T23:40:11.317Z,99.90
2022-09-04T23:43:07.441Z,99.90
2022-09-04T23:46:01.741Z,99.90
2022-09-04T23:49:06.974Z,99.90
2022-09-04T23:51:45.637Z,99.90
2022-09-04T23:54:52.346Z,99.90
2022-09-04T23:57:29.517Z,99.90
